Time;durP1;ratioP1;P1;durP2;ratioP2;P2;SDS_P1;SDS_P2;PMS_P1;PMS_P2;Temp;Humidity;BMP_temperature;BMP_pressure;BME280_temperature;BME280_humidity;BME280_pressure;Samples;Min_cycle;Max_cycle;Signal;HPM_P1;HPM_P2
2022/09/14 00:02:01;;;;;;;16.50;10.35;;;;;;;14.67;99.18;98432.31;8401014;28;20059;-82
2022/09/14 00:06:07;;;;;;;15.32;8.95;;;;;;;14.61;99.33;98439.13;8399133;28;20486;-82
2022/09/14 00:10:08;;;;;;;13.13;9.45;;;;;;;14.55;99.27;98435.09;8416016;28;20062;-82
2022/09/14 00:14:09;;;;;;;14.32;9.57;;;;;;;14.46;99.30;98426.34;8396667;28;20067;-82
2022/09/14 00:18:11;;;;;;;12.75;9.48;;;;;;;14.38;99.70;98440.91;8410259;28;20470;-81
2022/09/14 00:22:12;;;;;;;17.33;9.98;;;;;;;14.41;99.60;98434.75;8403036;28;20044;-82
2022/09/14 00:26:15;;;;;;;14.30;9.55;;;;;;;14.45;99.42;98435.63;8399899;28;20418;-82
2022/09/14 00:30:16;;;;;;;13.57;9.40;;;;;;;14.53;99.42;98437.41;8399827;28;20079;-81
2022/09/14 00:34:17;;;;;;;14.93;11.02;;;;;;;14.60;98.86;98425.88;8422691;28;20048;-82
2022/09/14 00:38:18;;;;;;;14.52;9.10;;;;;;;14.66;98.95;98425.28;8410036;28;20093;-81
2022/09/14 00:42:19;;;;;;;14.43;10.43;;;;;;;14.70;98.76;98420.72;8411202;28;20052;-81
2022/09/14 00:46:21;;;;;;;15.18;9.98;;;;;;;14.68;98.79;98423.00;8400996;28;20052;-81
2022/09/14 00:50:22;;;;;;;16.17;10.30;;;;;;;14.64;98.96;98411.28;8402391;28;20048;-80
2022/09/14 00:54:24;;;;;;;14.75;10.88;;;;;;;14.58;99.25;98418.13;8417515;28;20056;-81
2022/09/14 00:58:25;;;;;;;17.50;11.05;;;;;;;14.52;99.67;98419.50;8414658;28;20049;-81
2022/09/14 01:02:27;;;;;;;20.10;10.10;;;;;;;14.50;99.82;98416.34;8410901;28;20059;-80
2022/09/14 01:06:55;;;;;;;17.35;9.45;;;;;;;14.52;99.89;98419.50;8423257;28;20036;-81
2022/09/14 01:11:31;;;;;;;15.38;10.20;;;;;;;14.53;99.86;98418.38;8410892;28;20632;-82
2022/09/14 01:15:55;;;;;;;18.17;10.25;;;;;;;14.53;99.92;98421.09;8315363;28;20062;-81
2022/09/14 01:20:25;;;;;;;15.80;10.98;;;;;;;14.56;99.99;98420.38;8308159;28;20050;-81
2022/09/14 01:24:58;;;;;;;19.00;10.45;;;;;;;14.59;99.85;98425.09;8299868;28;20053;-81
2022/09/14 01:29:09;;;;;;;14.73;10.65;;;;;;;14.60;99.77;98410.38;8295365;28;20049;-81
2022/09/14 01:33:33;;;;;;;21.08;11.88;;;;;;;14.64;100.00;98411.28;8295832;28;20060;-80
2022/09/14 01:37:51;;;;;;;18.67;12.80;;;;;;;14.67;100.00;98405.13;8301284;28;20046;-84
2022/09/14 01:41:53;;;;;;;17.35;11.52;;;;;;;14.69;99.95;98412.94;8298258;28;20042;-81
2022/09/14 01:46:00;;;;;;;19.60;12.23;;;;;;;14.70;100.00;98404.41;8301806;28;20408;-81
2022/09/14 01:50:30;;;;;;;16.67;12.25;;;;;;;14.72;100.00;98406.78;8319629;28;20123;-81
2022/09/14 01:54:36;;;;;;;20.52;13.18;;;;;;;14.74;100.00;98405.31;8398406;28;20052;-81
2022/09/14 01:58:45;;;;;;;19.92;12.93;;;;;;;14.75;100.00;98395.97;8402778;28;20045;-81
2022/09/14 02:02:53;;;;;;;19.33;11.75;;;;;;;14.72;100.00;98385.84;8401049;28;20083;-81
2022/09/14 02:06:55;;;;;;;;;;;;;;;14.69;100.00;98386.56;8399167;28;20032;-81
2022/09/14 02:10:57;;;;;;;25.63;13.05;;;;;;;14.62;100.00;98386.38;8418706;28;19920;-81
2022/09/14 02:14:58;;;;;;;17.58;12.70;;;;;;;14.56;100.00;98381.56;8403919;28;20041;-81
2022/09/14 02:19:00;;;;;;;20.50;11.77;;;;;;;14.48;100.00;98375.19;8389449;28;20144;-81
2022/09/14 02:23:02;;;;;;;17.77;11.35;;;;;;;14.39;100.00;98377.25;8411928;28;20580;-81
2022/09/14 02:27:03;;;;;;;19.52;12.55;;;;;;;14.33;100.00;98376.69;8401301;28;20048;-83
2022/09/14 02:31:22;;;;;;;19.75;12.15;;;;;;;14.31;100.00;98372.78;8342153;28;20063;-81
2022/09/14 02:35:37;;;;;;;18.35;11.45;;;;;;;14.26;100.00;98367.59;8407175;28;20094;-81
2022/09/14 02:40:09;;;;;;;13.85;10.43;;;;;;;14.18;100.00;98371.28;8404048;28;20036;-81
2022/09/14 02:44:51;;;;;;;19.88;11.98;;;;;;;14.12;100.00;98372.66;8404367;28;20052;-81
2022/09/14 02:49:15;;;;;;;23.45;11.77;;;;;;;14.05;100.00;98372.50;8340337;28;20052;-81
2022/09/14 02:53:20;;;;;;;18.60;10.98;;;;;;;13.99;100.00;98373.88;8348929;28;20057;-81
2022/09/14 02:57:21;;;;;;;22.45;15.43;;;;;;;13.94;100.00;98359.44;8338732;28;20176;-82
2022/09/14 03:01:23;;;;;;;18.10;12.20;;;;;;;13.93;100.00;98366.00;8335746;28;20499;-81
2022/09/14 03:05:24;;;;;;;24.45;12.63;;;;;;;13.92;100.00;98360.91;8340528;28;20061;-81
2022/09/14 03:09:25;;;;;;;22.40;13.50;;;;;;;13.88;100.00;98363.53;8352475;28;20142;-80
2022/09/14 03:13:26;;;;;;;20.10;13.43;;;;;;;13.88;100.00;98368.19;8336096;28;20057;-82
2022/09/14 03:17:27;;;;;;;18.92;13.32;;;;;;;13.87;100.00;98359.25;8363363;28;20502;-81
2022/09/14 03:21:28;;;;;;;22.55;12.93;;;;;;;13.84;100.00;98362.66;8399267;28;20051;-81
2022/09/14 03:25:29;;;;;;;23.13;14.13;;;;;;;13.84;100.00;98373.53;8401397;28;20053;-82
2022/09/14 03:29:30;;;;;;;18.55;13.55;;;;;;;13.84;100.00;98362.66;8396815;28;20408;-81
2022/09/14 03:33:31;;;;;;;21.02;12.68;;;;;;;13.81;100.00;98362.56;8396120;28;20132;-82
2022/09/14 03:37:36;;;;;;;21.50;13.18;;;;;;;13.77;100.00;98367.91;8409669;28;20421;-82
2022/09/14 03:41:36;;;;;;;22.75;12.98;;;;;;;13.73;100.00;98361.59;8426119;28;20032;-82
2022/09/14 03:45:38;;;;;;;21.55;13.80;;;;;;;13.71;100.00;98369.28;8403789;28;20056;-82
2022/09/14 03:49:38;;;;;;;23.30;14.57;;;;;;;13.68;100.00;98353.72;8406410;28;20121;-83
2022/09/14 03:53:40;;;;;;;21.92;13.80;;;;;;;13.65;100.00;98354.38;8416767;28;20040;-83
2022/09/14 03:57:41;;;;;;;24.05;14.63;;;;;;;13.62;100.00;98344.25;8412214;28;20055;-83
2022/09/14 04:01:42;;;;;;;19.60;12.82;;;;;;;13.58;100.00;98354.22;8391879;28;20044;-84
2022/09/14 04:05:44;;;;;;;19.08;12.68;;;;;;;13.54;100.00;98353.31;8375131;28;20424;-84
2022/09/14 04:09:45;;;;;;;18.40;11.55;;;;;;;13.49;100.00;98350.84;8405376;28;20056;-84
2022/09/14 04:13:46;;;;;;;18.05;11.45;;;;;;;13.45;100.00;98349.97;8413983;28;20067;-84
2022/09/14 04:17:48;;;;;;;20.52;11.25;;;;;;;13.40;100.00;98347.50;8398964;28;20059;-83
2022/09/14 04:21:49;;;;;;;16.27;11.18;;;;;;;13.37;100.00;98353.63;8407823;28;20087;-83
2022/09/14 04:25:51;;;;;;;17.98;11.77;;;;;;;13.32;100.00;98367.44;8420465;28;20040;-83
2022/09/14 04:29:52;;;;;;;18.88;11.32;;;;;;;13.30;100.00;98361.53;8397468;28;20166;-84
2022/09/14 04:33:55;;;;;;;20.77;13.68;;;;;;;13.26;100.00;98368.78;8423086;28;20052;-83
2022/09/14 04:37:55;;;;;;;25.10;13.15;;;;;;;13.23;100.00;98366.75;8393163;28;20043;-83
2022/09/14 04:41:56;;;;;;;20.60;11.88;;;;;;;13.21;100.00;98356.28;8422125;28;20107;-84
2022/09/14 04:46:06;;;;;;;18.77;11.43;;;;;;;13.21;100.00;98360.91;8416016;28;20059;-83
2022/09/14 04:50:07;;;;;;;24.25;11.90;;;;;;;13.19;100.00;98363.94;8413304;28;20044;-84
2022/09/14 04:54:13;;;;;;;20.50;10.48;;;;;;;13.11;100.00;98379.22;8416120;28;20139;-83
2022/09/14 04:58:14;;;;;;;17.45;10.40;;;;;;;13.07;100.00;98372.88;8421032;28;20045;-83
2022/09/14 05:02:14;;;;;;;13.77;9.80;;;;;;;13.05;100.00;98375.16;8407929;28;20094;-84
2022/09/14 05:06:19;;;;;;;17.33;12.45;;;;;;;13.05;100.00;98358.88;8408167;28;20516;-84
2022/09/14 05:10:19;;;;;;;17.02;12.25;;;;;;;13.09;100.00;98359.78;8395677;28;20524;-84
2022/09/14 05:14:21;;;;;;;22.83;11.32;;;;;;;13.15;100.00;98367.69;8433778;28;20071;-83
2022/09/14 05:18:22;;;;;;;16.13;10.90;;;;;;;13.18;100.00;98361.56;8431709;28;20048;-83
2022/09/14 05:22:22;;;;;;;14.05;10.13;;;;;;;13.22;100.00;98367.91;8404243;28;20466;-84
2022/09/14 05:26:25;;;;;;;17.52;11.00;;;;;;;13.27;100.00;98364.97;8416417;28;20039;-83
2022/09/14 05:30:26;;;;;;;15.90;10.45;;;;;;;13.34;100.00;98359.72;8403278;28;20097;-83
2022/09/14 05:34:27;;;;;;;20.80;11.82;;;;;;;13.42;100.00;98364.22;8427963;28;20047;-83
2022/09/14 05:38:29;;;;;;;29.33;13.30;;;;;;;13.54;100.00;98361.44;8400983;28;20060;-84
2022/09/14 05:42:30;;;;;;;21.52;14.40;;;;;;;13.68;100.00;98364.56;8410271;28;20052;-82
2022/09/14 05:46:31;;;;;;;22.88;16.40;;;;;;;13.84;100.00;98368.09;8398299;28;20408;-81
2022/09/14 05:50:32;;;;;;;25.98;18.80;;;;;;;14.00;100.00;98370.03;8389211;28;20099;-83
2022/09/14 05:54:33;;;;;;;27.42;17.88;;;;;;;14.10;100.00;98358.66;8370639;28;20044;-84
2022/09/14 05:58:35;;;;;;;26.63;17.70;;;;;;;14.18;100.00;98349.53;8376376;28;20048;-83
2022/09/14 06:02:36;;;;;;;27.80;18.70;;;;;;;14.23;100.00;98352.78;8378237;28;20049;-84
2022/09/14 06:06:37;;;;;;;33.63;18.52;;;;;;;14.27;100.00;98352.91;8392243;28;20049;-83
2022/09/14 06:10:38;;;;;;;33.33;18.15;;;;;;;14.31;100.00;98353.75;8398119;28;20037;-85
2022/09/14 06:14:39;;;;;;;31.05;17.77;;;;;;;14.36;100.00;98358.94;8398408;28;20406;-84
2022/09/14 06:18:42;;;;;;;31.77;18.40;;;;;;;14.43;100.00;98356.44;8377795;28;20045;-85
2022/09/14 06:22:43;;;;;;;32.38;17.80;;;;;;;14.49;100.00;98365.84;8401974;28;20141;-84
2022/09/14 06:26:44;;;;;;;24.67;15.93;;;;;;;14.56;100.00;98355.16;8391487;28;20095;-86
2022/09/14 06:30:44;;;;;;;26.88;16.85;;;;;;;14.64;100.00;98362.38;8390901;28;20456;-85
2022/09/14 06:34:46;;;;;;;25.13;15.25;;;;;;;14.70;100.00;98358.22;8396891;28;20052;-85
2022/09/14 06:38:48;;;;;;;33.10;17.40;;;;;;;14.76;100.00;98351.38;8387333;28;20135;-84
2022/09/14 06:42:49;;;;;;;28.30;14.60;;;;;;;14.78;100.00;98351.81;8397435;28;20048;-85
2022/09/14 06:46:50;;;;;;;22.40;12.93;;;;;;;14.83;100.00;98358.09;8397281;28;20048;-84
2022/09/14 06:50:51;;;;;;;20.33;12.30;;;;;;;14.88;100.00;98355.09;8382717;28;20060;-83
2022/09/14 06:54:52;;;;;;;24.50;11.30;;;;;;;14.91;100.00;98354.41;8397058;28;20551;-84
2022/09/14 06:58:53;;;;;;;19.60;10.20;;;;;;;14.94;100.00;98353.69;8386770;28;20047;-83
2022/09/14 07:02:54;;;;;;;19.80;9.32;;;;;;;15.00;100.00;98352.28;8377775;28;20052;-83
2022/09/14 07:06:58;;;;;;;21.13;7.50;;;;;;;15.10;100.00;98357.16;8408955;28;20052;-84
2022/09/14 07:10:59;;;;;;;17.80;7.43;;;;;;;15.27;100.00;98367.63;8403377;28;20131;-84
2022/09/14 07:15:00;;;;;;;13.75;5.97;;;;;;;15.42;99.42;98364.03;8430123;28;20048;-82
2022/09/14 07:19:04;;;;;;;7.63;5.03;;;;;;;15.52;97.59;98360.78;8405325;28;20063;-83
2022/09/14 07:23:05;;;;;;;10.55;4.28;;;;;;;15.57;95.64;98360.50;8403618;28;20048;-84
2022/09/14 07:27:06;;;;;;;13.30;3.97;;;;;;;15.64;94.77;98359.84;8413780;28;20076;-83
2022/09/14 07:31:18;;;;;;;9.85;4.05;;;;;;;15.75;94.30;98368.22;8428848;28;20516;-81
2022/09/14 07:35:19;;;;;;;13.48;4.50;;;;;;;15.80;93.64;98357.03;8400626;28;20043;-82
2022/09/14 07:39:20;;;;;;;11.10;4.15;;;;;;;15.87;93.15;98368.03;8412133;28;20052;-83
2022/09/14 07:43:21;;;;;;;11.68;3.92;;;;;;;15.90;92.28;98372.78;8415148;28;20044;-83
2022/09/14 07:47:22;;;;;;;71.32;31.23;;;;;;;15.93;91.64;98372.03;8415207;28;20073;-84
2022/09/14 07:51:24;;;;;;;90.13;35.95;;;;;;;15.96;90.79;98371.34;8364994;28;20072;-83
2022/09/14 07:55:25;;;;;;;13.77;4.60;;;;;;;15.97;90.16;98367.44;8401910;28;20132;-84
2022/09/14 07:59:26;;;;;;;12.48;4.15;;;;;;;16.00;89.82;98367.53;8409869;28;20389;-84
2022/09/14 08:03:28;;;;;;;16.25;4.18;;;;;;;16.01;88.41;98362.88;8379180;28;20070;-83
2022/09/14 08:07:29;;;;;;;12.85;3.70;;;;;;;16.01;87.96;98362.88;8414333;28;20101;-83
2022/09/14 08:11:33;;;;;;;15.13;4.57;;;;;;;16.10;88.09;98374.28;8404701;28;20093;-83
2022/09/14 08:15:34;;;;;;;9.77;3.55;;;;;;;16.21;88.33;98378.00;8424179;28;20524;-83
2022/09/14 08:19:36;;;;;;;17.58;4.20;;;;;;;16.30;88.26;98370.38;8408775;28;20482;-83
2022/09/14 08:23:37;;;;;;;10.13;3.95;;;;;;;16.42;87.80;98372.91;8400797;28;20046;-82
2022/09/14 08:27:38;;;;;;;10.60;4.13;;;;;;;16.55;86.77;98370.00;8336669;28;20502;-83
2022/09/14 08:31:39;;;;;;;11.82;3.88;;;;;;;16.68;86.56;98369.44;8424545;28;20059;-83
2022/09/14 08:35:42;;;;;;;16.30;4.70;;;;;;;16.85;86.01;98362.69;8434942;28;20062;-81
2022/09/14 08:39:44;;;;;;;12.95;3.60;;;;;;;16.92;85.43;98368.22;8401421;28;20782;-82
2022/09/14 08:43:46;;;;;;;11.73;4.95;;;;;;;16.92;84.03;98362.78;8425048;28;20076;-82
2022/09/14 08:47:46;;;;;;;12.50;3.80;;;;;;;16.95;83.66;98345.69;8419058;28;20055;-82
2022/09/14 08:51:49;;;;;;;13.73;5.32;;;;;;;16.97;83.35;98348.84;8420570;28;20389;-83
2022/09/14 08:55:59;;;;;;;7.53;3.08;;;;;;;17.02;82.19;98351.25;8434500;28;20044;-82
2022/09/14 09:00:03;;;;;;;12.98;3.13;;;;;;;17.00;81.83;98353.56;8434612;28;20119;-82
2022/09/14 09:04:31;;;;;;;21.95;6.90;;;;;;;16.97;82.02;98348.84;8434339;28;20139;-82
2022/09/14 09:08:58;;;;;;;18.38;7.55;;;;;;;16.99;81.75;98346.50;8419825;28;20103;-83
2022/09/14 09:13:00;;;;;;;18.55;3.70;;;;;;;16.99;81.97;98351.97;8297319;28;20049;-83
2022/09/14 09:17:05;;;;;;;30.52;15.43;;;;;;;16.99;81.95;98351.97;8280316;28;20065;-82
2022/09/14 09:21:27;;;;;;;45.22;21.92;;;;;;;17.04;82.59;98348.91;8291426;28;20515;-82
2022/09/14 09:25:41;;;;;;;14.48;4.40;;;;;;;17.11;82.53;98354.47;8261990;28;20061;-82
2022/09/14 09:29:42;;;;;;;18.42;9.60;;;;;;;17.09;81.81;98351.31;8248229;28;20042;-82
2022/09/14 09:33:46;;;;;;;13.18;4.22;;;;;;;17.21;81.76;98348.38;8297004;28;20058;-82
2022/09/14 09:37:47;;;;;;;11.30;3.60;;;;;;;17.37;81.66;98355.56;8277259;28;20054;-82
2022/09/14 09:41:54;;;;;;;10.75;2.90;;;;;;;17.52;81.26;98351.84;8278051;28;20598;-83
2022/09/14 09:46:03;;;;;;;16.10;7.03;;;;;;;17.62;80.70;98356.69;8261737;28;20074;-82
2022/09/14 09:50:25;;;;;;;18.50;7.68;;;;;;;17.76;80.70;98351.41;8392878;28;20060;-82
2022/09/14 09:54:29;;;;;;;14.85;4.82;;;;;;;17.78;80.12;98343.59;8418127;28;20079;-84
2022/09/14 09:58:34;;;;;;;9.93;3.25;;;;;;;17.73;78.99;98347.47;8432700;28;20044;-83
2022/09/14 10:02:35;;;;;;;88.28;43.97;;;;;;;17.74;78.85;98342.78;8432062;28;20044;-82
2022/09/14 10:06:47;;;;;;;19.08;4.22;;;;;;;17.88;78.27;98342.91;8432322;28;20389;-81
2022/09/14 10:10:51;;;;;;;13.85;3.33;;;;;;;18.03;78.63;98341.88;8430882;28;20135;-83
2022/09/14 10:15:25;;;;;;;10.55;2.30;;;;;;;18.17;78.81;98337.72;8430514;28;20059;-82
2022/09/14 10:19:28;;;;;;;14.75;3.10;;;;;;;18.11;78.02;98340.81;8341693;28;20069;-81
2022/09/14 10:23:35;;;;;;;10.57;2.92;;;;;;;18.25;78.16;98333.88;8332586;28;20054;-82
2022/09/14 10:27:40;;;;;;;10.70;3.13;;;;;;;18.36;77.26;98335.56;8335762;28;20052;-82
2022/09/14 10:31:42;;;;;;;9.60;2.70;;;;;;;18.35;76.62;98328.50;8334642;28;20054;-83
2022/09/14 10:35:55;;;;;;;8.43;2.67;;;;;;;18.43;77.10;98329.34;8321725;28;20091;-82
2022/09/14 10:40:18;;;;;;;7.45;3.10;;;;;;;18.45;76.85;98327.03;8340184;28;20055;-82
2022/09/14 10:44:56;;;;;;;11.35;3.25;;;;;;;18.40;77.10;98327.41;8325823;28;20103;-83
2022/09/14 10:49:22;;;;;;;12.70;3.15;;;;;;;18.22;76.44;98329.19;8325616;28;20057;-81
2022/09/14 10:53:34;;;;;;;14.55;3.65;;;;;;;18.19;77.09;98335.41;8321735;28;20399;-82
2022/09/14 10:57:53;;;;;;;16.27;3.60;;;;;;;18.22;77.33;98329.19;8396108;28;20052;-83
2022/09/14 11:02:19;;;;;;;10.30;3.55;;;;;;;18.27;77.44;98331.56;8373834;28;20060;-81
2022/09/14 11:06:26;;;;;;;11.13;3.17;;;;;;;18.36;77.11;98329.28;8360391;28;20048;-82
2022/09/14 11:10:42;;;;;;;11.15;3.80;;;;;;;18.43;76.98;98323.91;8396514;28;20123;-82
2022/09/14 11:14:43;;;;;;;10.85;3.33;;;;;;;18.52;76.82;98316.13;8382075;28;20044;-82
2022/09/14 11:19:12;;;;;;;9.13;3.38;;;;;;;18.62;76.44;98304.53;8398648;28;20523;-83
2022/09/14 11:23:35;;;;;;;21.60;3.97;;;;;;;18.59;76.17;98299.03;8384724;28;20055;-82
2022/09/14 11:27:38;;;;;;;15.23;3.30;;;;;;;18.51;76.53;98314.56;8395585;28;20137;-82
2022/09/14 11:31:47;;;;;;;7.53;3.28;;;;;;;18.41;77.10;98315.28;8394864;28;20055;-83
2022/09/14 11:35:52;;;;;;;11.18;3.70;;;;;;;18.37;77.53;98309.00;8395841;28;20075;-82
2022/09/14 11:40:09;;;;;;;16.10;3.30;;;;;;;18.32;77.43;98301.16;8394253;28;20135;-82
2022/09/14 11:44:14;;;;;;;7.22;2.80;;;;;;;18.36;77.73;98291.03;8395518;28;20066;-83
2022/09/14 11:49:00;;;;;;;7.35;3.13;;;;;;;18.57;76.78;98274.78;8394449;28;20409;-82
2022/09/14 11:53:08;;;;;;;11.20;3.28;;;;;;;18.92;75.67;98275.00;8325512;28;20566;-82
2022/09/14 11:57:16;;;;;;;10.90;3.30;;;;;;;19.07;75.11;98286.00;8325477;28;20618;-83
2022/09/14 12:01:27;;;;;;;12.05;3.53;;;;;;;19.25;74.50;98270.44;8304377;28;20062;-82
2022/09/14 12:05:31;;;;;;;12.68;3.28;;;;;;;19.27;74.49;98268.09;8356300;28;20187;-84
2022/09/14 12:09:38;;;;;;;11.15;3.53;;;;;;;19.33;74.77;98272.81;8358324;28;20063;-82
2022/09/14 12:13:39;;;;;;;13.82;4.05;;;;;;;19.19;74.77;98277.47;8341374;28;20502;-83
2022/09/14 12:17:41;;;;;;;12.70;4.03;;;;;;;19.20;75.15;98284.50;8344164;28;20048;-82
2022/09/14 12:21:42;;;;;;;8.73;3.90;;;;;;;19.09;75.85;98278.22;8358278;28;20064;-82
2022/09/14 12:26:05;;;;;;;13.18;3.50;;;;;;;18.98;75.65;98273.44;8338361;28;20458;-82
2022/09/14 12:30:35;;;;;;;15.93;4.28;;;;;;;19.18;75.65;98270.41;8427952;28;20087;-83
2022/09/14 12:34:35;;;;;;;9.20;4.20;;;;;;;19.23;74.95;98283.72;8400385;28;20127;-82
2022/09/14 12:38:37;;;;;;;13.10;4.97;;;;;;;19.26;74.92;98285.69;8417075;28;20097;-82
2022/09/14 12:42:37;;;;;;;9.07;5.35;;;;;;;19.25;75.00;98278.66;8423119;28;20373;-82
2022/09/14 12:46:39;;;;;;;11.77;5.07;;;;;;;19.24;75.24;98268.88;8415337;28;20052;-81
2022/09/14 12:50:40;;;;;;;9.77;4.32;;;;;;;19.21;75.88;98264.16;8416833;28;20163;-83
2022/09/14 12:54:50;;;;;;;14.90;4.43;;;;;;;19.16;76.19;98261.81;8428853;28;20055;-84
2022/09/14 12:59:15;;;;;;;8.27;3.90;;;;;;;19.09;76.65;98256.31;8434514;28;20047;-82
2022/09/14 13:03:29;;;;;;;15.25;3.47;;;;;;;18.96;76.75;98259.41;8383892;28;20435;-81
2022/09/14 13:07:32;;;;;;;9.10;3.47;;;;;;;18.89;76.83;98237.47;8407606;28;20076;-82
2022/09/14 13:11:37;;;;;;;8.75;3.45;;;;;;;18.92;76.98;98236.72;8433854;28;20040;-82
2022/09/14 13:15:52;;;;;;;6.80;2.85;;;;;;;18.99;76.54;98225.78;8437748;28;20060;-81
2022/09/14 13:19:59;;;;;;;9.35;3.00;;;;;;;19.11;75.96;98237.53;8432216;28;20048;-81
2022/09/14 13:24:00;;;;;;;13.52;3.42;;;;;;;19.18;75.88;98223.91;8415553;28;20397;-82
2022/09/14 13:28:10;;;;;;;12.30;3.22;;;;;;;19.17;75.75;98219.59;8419177;28;20044;-83
2022/09/14 13:32:20;;;;;;;8.50;3.35;;;;;;;19.02;76.14;98223.44;8397590;28;20056;-82
2022/09/14 13:36:24;;;;;;;13.20;3.10;;;;;;;18.86;76.90;98210.88;8426612;28;20090;-83
2022/09/14 13:40:28;;;;;;;5.82;2.80;;;;;;;18.81;77.42;98214.00;8423780;28;20040;-82
2022/09/14 13:44:33;;;;;;;13.73;3.50;;;;;;;18.87;77.57;98201.53;8431744;28;20048;-82
2022/09/14 13:48:35;;;;;;;9.52;3.97;;;;;;;18.81;77.60;98197.59;8409238;28;20049;-83
2022/09/14 13:52:39;;;;;;;8.90;3.55;;;;;;;18.77;78.14;98196.75;8396415;28;20067;-82
2022/09/14 13:56:40;;;;;;;12.52;3.83;;;;;;;18.69;78.28;98195.19;8415076;28;20127;-82
2022/09/14 14:00:49;;;;;;;11.98;3.88;;;;;;;18.64;78.53;98192.81;8421638;28;20047;-82
2022/09/14 14:04:50;;;;;;;10.02;3.47;;;;;;;18.59;79.03;98184.97;8416335;28;20071;-82
2022/09/14 14:09:07;;;;;;;8.40;3.08;;;;;;;18.56;79.99;98180.25;8427167;28;20477;-82
2022/09/14 14:13:08;;;;;;;8.55;3.20;;;;;;;18.48;80.36;98178.63;8408496;28;20055;-83
2022/09/14 14:17:29;;;;;;;6.80;3.35;;;;;;;18.47;80.89;98183.31;8415486;28;20113;-82
2022/09/14 14:21:32;;;;;;;10.02;3.80;;;;;;;18.49;80.37;98167.34;8418607;28;20193;-82
2022/09/14 14:25:46;;;;;;;5.13;3.33;;;;;;;18.56;80.25;98159.16;8402438;28;20097;-82
2022/09/14 14:29:47;;;;;;;8.05;3.45;;;;;;;18.59;80.34;98163.09;8399281;28;20056;-82
2022/09/14 14:33:50;;;;;;;8.95;3.53;;;;;;;18.67;80.89;98161.94;8410364;28;20536;-82
2022/09/14 14:37:51;;;;;;;10.55;3.60;;;;;;;18.77;80.60;98163.94;8365792;28;20083;-82
2022/09/14 14:41:52;;;;;;;12.07;3.47;;;;;;;18.76;79.97;98162.41;8424231;28;20039;-82
2022/09/14 14:45:57;;;;;;;9.80;3.78;;;;;;;18.64;80.22;98160.00;8340973;28;20072;-82
2022/09/14 14:49:58;;;;;;;11.65;3.67;;;;;;;18.58;80.67;98161.53;8348497;28;20526;-82
2022/09/14 14:54:00;;;;;;;9.05;3.30;;;;;;;18.53;81.24;98159.91;8345208;28;20057;-82
2022/09/14 14:58:03;;;;;;;9.60;3.40;;;;;;;18.47;81.51;98155.19;8325391;28;20562;-82
2022/09/14 15:02:05;;;;;;;10.65;3.60;;;;;;;18.46;81.89;98159.09;8335550;28;20049;-82
2022/09/14 15:06:14;;;;;;;9.13;3.50;;;;;;;18.47;82.35;98150.50;8349129;28;20486;-82
2022/09/14 15:10:15;;;;;;;7.97;3.63;;;;;;;18.48;82.58;98146.63;8329229;28;20738;-82
2022/09/14 15:14:18;;;;;;;8.68;3.72;;;;;;;18.45;82.64;98146.63;8309706;28;20077;-82
2022/09/14 15:18:20;;;;;;;7.57;3.30;;;;;;;18.36;82.84;98148.88;8310358;28;20688;-82
2022/09/14 15:22:21;;;;;;;9.05;3.75;;;;;;;18.28;83.36;98147.31;8362863;28;20057;-82
2022/09/14 15:26:23;;;;;;;9.43;3.30;;;;;;;18.23;83.92;98144.94;8415460;28;20148;-82
2022/09/14 15:30:24;;;;;;;12.43;3.38;;;;;;;18.17;84.48;98139.03;8415509;28;20059;-82
2022/09/14 15:34:25;;;;;;;10.90;3.20;;;;;;;18.17;84.90;98141.00;8397128;28;20477;-82
2022/09/14 15:38:26;;;;;;;10.55;3.67;;;;;;;18.11;85.00;98144.09;8395298;28;20431;-82
2022/09/14 15:42:27;;;;;;;15.57;3.38;;;;;;;18.07;85.08;98137.81;8409745;28;20055;-81
2022/09/14 15:46:29;;;;;;;8.55;3.65;;;;;;;18.05;85.53;98134.69;8404365;28;20042;-82
2022/09/14 15:50:30;;;;;;;11.30;3.78;;;;;;;18.01;86.16;98147.53;8391719;28;20044;-82
2022/09/14 15:54:33;;;;;;;10.18;3.33;;;;;;;17.96;86.65;98139.69;8396110;28;20048;-82
2022/09/14 15:58:33;;;;;;;9.23;3.40;;;;;;;17.91;87.23;98140.06;8395040;28;20048;-82
2022/09/14 16:02:35;;;;;;;10.70;4.18;;;;;;;17.85;87.33;98136.09;8391448;28;20056;-81
2022/09/14 16:06:35;;;;;;;9.30;3.40;;;;;;;17.82;87.81;98125.94;8405860;28;20090;-82
2022/09/14 16:10:36;;;;;;;12.95;3.58;;;;;;;17.78;88.32;98125.13;8424170;28;20138;-82
2022/09/14 16:14:37;;;;;;;10.00;3.58;;;;;;;17.73;88.49;98122.75;8428236;28;20056;-82
2022/09/14 16:18:39;;;;;;;19.77;3.75;;;;;;;17.67;88.32;98127.00;8419051;28;20056;-81
2022/09/14 16:22:40;;;;;;;9.88;3.72;;;;;;;17.62;88.84;98127.34;8383081;28;20037;-82
2022/09/14 16:26:41;;;;;;;8.98;3.60;;;;;;;17.56;89.10;98117.91;8384854;28;20057;-81
2022/09/14 16:30:42;;;;;;;7.18;3.50;;;;;;;17.51;89.53;98120.97;8401823;28;20048;-81
2022/09/14 16:34:44;;;;;;;8.88;4.05;;;;;;;17.46;90.01;98115.88;8401574;28;20064;-81
2022/09/14 16:38:45;;;;;;;9.27;3.97;;;;;;;17.40;90.38;98114.66;8397523;28;20071;-81
2022/09/14 16:42:47;;;;;;;9.30;3.55;;;;;;;17.35;90.88;98117.72;8401070;28;20068;-81
2022/09/14 16:46:48;;;;;;;10.95;4.22;;;;;;;17.28;91.17;98119.25;8402738;28;20482;-81
2022/09/14 16:50:52;;;;;;;7.18;4.00;;;;;;;17.25;91.56;98125.44;8401022;28;20063;-81
2022/09/14 16:54:53;;;;;;;11.65;4.50;;;;;;;17.21;91.96;98124.63;8400568;28;20040;-81
2022/09/14 16:58:55;;;;;;;15.70;5.30;;;;;;;17.14;92.29;98121.84;8400448;28;20040;-82
2022/09/14 17:02:55;;;;;;;14.93;5.68;;;;;;;17.00;92.67;98124.44;8401983;28;20036;-81
2022/09/14 17:06:56;;;;;;;12.13;5.38;;;;;;;16.92;93.46;98122.78;8430707;28;20488;-81
2022/09/14 17:10:58;;;;;;;14.60;5.22;;;;;;;16.86;93.91;98124.28;8427708;28;20056;-81
2022/09/14 17:14:59;;;;;;;14.68;5.80;;;;;;;16.80;94.48;98114.88;8360681;28;20117;-81
2022/09/14 17:19:03;;;;;;;18.67;9.57;;;;;;;16.79;94.67;98113.31;8400221;28;20059;-81
2022/09/14 17:23:05;;;;;;;10.95;5.40;;;;;;;16.77;94.88;98110.16;8371771;28;20036;-81
2022/09/14 17:27:06;;;;;;;21.85;9.55;;;;;;;16.73;95.33;98114.78;8410182;28;20421;-80
2022/09/14 17:31:12;;;;;;;16.42;7.68;;;;;;;16.69;95.74;98103.84;8411154;28;20052;-80
2022/09/14 17:35:13;;;;;;;10.13;7.50;;;;;;;16.63;95.98;98093.66;8408109;28;20145;-80
2022/09/14 17:39:14;;;;;;;17.08;8.80;;;;;;;16.61;96.45;98101.41;8391951;28;20044;-79
2022/09/14 17:43:17;;;;;;;24.38;15.20;;;;;;;16.58;96.75;98107.59;8408174;28;20060;-80
2022/09/14 17:47:18;;;;;;;14.10;10.10;;;;;;;16.56;96.92;98115.34;8380718;28;20048;-80
2022/09/14 17:51:21;;;;;;;19.48;12.25;;;;;;;16.54;97.34;98114.94;8351494;28;20175;-80
2022/09/14 17:55:23;;;;;;;17.75;10.60;;;;;;;16.52;97.54;98114.50;8374130;28;20049;-80
2022/09/14 17:59:24;;;;;;;16.15;9.10;;;;;;;16.52;97.54;98120.75;8369287;28;20574;-79
2022/09/14 18:03:25;;;;;;;15.07;8.60;;;;;;;16.51;97.89;98112.94;8375460;28;20063;-79
2022/09/14 18:07:26;;;;;;;17.52;9.32;;;;;;;16.51;97.99;98108.28;8345928;28;20469;-80
2022/09/14 18:11:28;;;;;;;19.77;9.73;;;;;;;16.50;98.44;98100.50;8396911;28;20389;-80
2022/09/14 18:15:29;;;;;;;17.42;8.30;;;;;;;16.48;98.26;98093.47;8387774;28;20405;-80
2022/09/14 18:19:30;;;;;;;17.67;8.20;;;;;;;16.45;98.44;98099.66;8385439;28;20119;-80
2022/09/14 18:23:32;;;;;;;18.75;9.70;;;;;;;16.41;98.72;98098.81;8396795;28;20032;-79
2022/09/14 18:27:34;;;;;;;16.20;8.75;;;;;;;16.41;98.87;98098.81;8401787;28;20071;-81
2022/09/14 18:31:34;;;;;;;12.63;8.32;;;;;;;16.39;99.09;98090.22;8397776;28;20393;-80
2022/09/14 18:35:37;;;;;;;17.95;9.43;;;;;;;16.39;99.14;98076.59;8395828;28;20553;-81
2022/09/14 18:39:38;;;;;;;21.90;10.15;;;;;;;16.37;99.43;98078.94;8394215;28;20139;-79
2022/09/14 18:43:48;;;;;;;33.25;12.70;;;;;;;16.37;99.45;98076.22;8412062;28;20043;-79
2022/09/14 18:47:49;;;;;;;51.10;17.30;;;;;;;16.37;99.64;98076.22;8405203;28;20043;-79
2022/09/14 18:51:50;;;;;;;31.70;13.93;;;;;;;16.35;99.67;98062.16;8374133;28;20076;-80
2022/09/14 18:55:53;;;;;;;43.80;18.75;;;;;;;16.34;99.78;98071.47;8367041;28;20060;-80